Terminal Aerodrome Forecast
Issued by NWS

Home | Current Version | Previous Version | Graphics & Text | Print | Product List | Glossary On
Versions: 1 2 3 4 5 6 7 8 9 10 11 12 13 14 15 16 17 18 19 20 21 22 23 24 25 26 27
000
FTUS43 KTOP 180800 AAA
TAFFOE
TAF AMD
KFOE 180822Z 1808/1906 08004KT 6SM BR FEW005 BKN100
      TEMPO 1808/1812 2SM BR BKN003
     FM181700 11008KT P6SM SCT025 BKN150=

USA.gov is the U.S. government's official web portal to all federal, state and local government web resources and services.